sensor_id;sensor_type;location;lat;lon;timestamp;pressure;altitude;pressure_sealevel;temperature;humidity
42519;BME280;28147;47.520;18.920;2023-08-06T00:00:46;97161.34;;;25.75;60.42
42519;BME280;28147;47.520;18.920;2023-08-06T00:03:12;97166.63;;;25.21;62.34
42519;BME280;28147;47.520;18.920;2023-08-06T00:05:41;97166.75;;;25.29;61.66
42519;BME280;28147;47.520;18.920;2023-08-06T00:08:07;97159.38;;;25.10;62.61
42519;BME280;28147;47.520;18.920;2023-08-06T00:10:32;97161.00;;;25.34;62.02
42519;BME280;28147;47.520;18.920;2023-08-06T00:12:57;97168.00;;;25.12;62.79
42519;BME280;28147;47.520;18.920;2023-08-06T00:15:23;97159.81;;;25.31;61.52
42519;BME280;28147;47.520;18.920;2023-08-06T00:17:48;97161.31;;;25.29;61.67
42519;BME280;28147;47.520;18.920;2023-08-06T00:20:13;97156.91;;;25.43;61.46
42519;BME280;28147;47.520;18.920;2023-08-06T00:22:39;97153.50;;;25.27;61.83
42519;BME280;28147;47.520;18.920;2023-08-06T00:25:05;97153.69;;;25.38;61.49
42519;BME280;28147;47.520;18.920;2023-08-06T00:27:30;97144.31;;;25.35;61.30
42519;BME280;28147;47.520;18.920;2023-08-06T00:29:56;97148.94;;;25.54;60.53
42519;BME280;28147;47.520;18.920;2023-08-06T00:32:21;97146.19;;;25.31;61.30
42519;BME280;28147;47.520;18.920;2023-08-06T00:34:47;97162.19;;;25.13;61.05
42519;BME280;28147;47.520;18.920;2023-08-06T00:37:17;97160.06;;;24.68;62.67
42519;BME280;28147;47.520;18.920;2023-08-06T00:39:43;97154.28;;;25.08;61.86
42519;BME280;28147;47.520;18.920;2023-08-06T00:42:10;97152.66;;;25.23;61.47
42519;BME280;28147;47.520;18.920;2023-08-06T00:44:36;97150.16;;;25.37;61.39
42519;BME280;28147;47.520;18.920;2023-08-06T00:47:02;97142.44;;;25.39;61.12
42519;BME280;28147;47.520;18.920;2023-08-06T00:49:27;97134.06;;;25.29;61.29
42519;BME280;28147;47.520;18.920;2023-08-06T00:51:53;97118.88;;;25.08;62.75
42519;BME280;28147;47.520;18.920;2023-08-06T00:54:18;97124.13;;;25.17;62.64
42519;BME280;28147;47.520;18.920;2023-08-06T00:56:45;97115.56;;;25.18;62.87
42519;BME280;28147;47.520;18.920;2023-08-06T00:59:12;97104.09;;;25.09;62.29
42519;BME280;28147;47.520;18.920;2023-08-06T01:01:38;97109.25;;;24.95;62.89
42519;BME280;28147;47.520;18.920;2023-08-06T01:04:03;97100.59;;;25.09;61.82
42519;BME280;28147;47.520;18.920;2023-08-06T01:06:40;97094.56;;;24.99;62.73
42519;BME280;28147;47.520;18.920;2023-08-06T01:09:39;97103.69;;;24.88;62.90
42519;BME280;28147;47.520;18.920;2023-08-06T01:12:34;97098.16;;;25.23;61.72
42519;BME280;28147;47.520;18.920;2023-08-06T01:15:28;97100.31;;;25.14;62.33
42519;BME280;28147;47.520;18.920;2023-08-06T01:17:54;97088.13;;;24.88;62.94
42519;BME280;28147;47.520;18.920;2023-08-06T01:20:20;97084.69;;;25.11;62.66
42519;BME280;28147;47.520;18.920;2023-08-06T01:22:45;97077.63;;;25.29;61.80
42519;BME280;28147;47.520;18.920;2023-08-06T01:25:15;97078.84;;;25.32;61.08
42519;BME280;28147;47.520;18.920;2023-08-06T01:27:47;97085.47;;;25.11;62.40
42519;BME280;28147;47.520;18.920;2023-08-06T01:30:17;97073.75;;;25.30;61.22
42519;BME280;28147;47.520;18.920;2023-08-06T01:32:48;97070.50;;;25.21;61.38
42519;BME280;28147;47.520;18.920;2023-08-06T01:35:16;97078.53;;;25.14;61.96
42519;BME280;28147;47.520;18.920;2023-08-06T01:37:43;97084.25;;;25.09;62.08
42519;BME280;28147;47.520;18.920;2023-08-06T01:40:12;97072.06;;;25.22;61.62
42519;BME280;28147;47.520;18.920;2023-08-06T01:42:38;97076.72;;;25.21;61.12
42519;BME280;28147;47.520;18.920;2023-08-06T01:45:05;97080.22;;;25.22;62.16
42519;BME280;28147;47.520;18.920;2023-08-06T01:47:30;97079.97;;;25.27;61.24
42519;BME280;28147;47.520;18.920;2023-08-06T01:49:56;97064.59;;;25.38;60.56
42519;BME280;28147;47.520;18.920;2023-08-06T01:52:21;97075.94;;;25.21;60.87
42519;BME280;28147;47.520;18.920;2023-08-06T01:54:47;97071.53;;;25.13;61.55
42519;BME280;28147;47.520;18.920;2023-08-06T01:57:12;97058.13;;;24.85;62.34
42519;BME280;28147;47.520;18.920;2023-08-06T01:59:37;97046.47;;;24.65;63.00
42519;BME280;28147;47.520;18.920;2023-08-06T02:02:03;97040.72;;;24.89;62.63
42519;BME280;28147;47.520;18.920;2023-08-06T02:04:28;97033.69;;;24.88;62.89
42519;BME280;28147;47.520;18.920;2023-08-06T02:06:54;97017.91;;;24.97;62.14
42519;BME280;28147;47.520;18.920;2023-08-06T02:09:19;97023.13;;;25.06;61.52
42519;BME280;28147;47.520;18.920;2023-08-06T02:11:44;97018.09;;;24.46;62.19
42519;BME280;28147;47.520;18.920;2023-08-06T02:14:10;97016.47;;;24.42;63.24
42519;BME280;28147;47.520;18.920;2023-08-06T02:16:35;97015.25;;;24.59;63.42
42519;BME280;28147;47.520;18.920;2023-08-06T02:19:01;97007.50;;;24.61;63.18
42519;BME280;28147;47.520;18.920;2023-08-06T02:21:26;97011.53;;;24.67;62.26
42519;BME280;28147;47.520;18.920;2023-08-06T02:23:51;96996.59;;;24.80;61.19
42519;BME280;28147;47.520;18.920;2023-08-06T02:26:17;96995.63;;;24.49;62.37
42519;BME280;28147;47.520;18.920;2023-08-06T02:28:42;96986.00;;;24.75;61.87
42519;BME280;28147;47.520;18.920;2023-08-06T02:31:08;96986.84;;;24.79;61.65
42519;BME280;28147;47.520;18.920;2023-08-06T02:33:33;96974.63;;;24.92;61.33
42519;BME280;28147;47.520;18.920;2023-08-06T02:36:00;96984.59;;;24.42;62.39
42519;BME280;28147;47.520;18.920;2023-08-06T02:38:26;96982.06;;;24.72;62.02
42519;BME280;28147;47.520;18.920;2023-08-06T02:40:51;96973.66;;;24.39;63.54
42519;BME280;28147;47.520;18.920;2023-08-06T02:43:17;96981.25;;;24.49;62.82
42519;BME280;28147;47.520;18.920;2023-08-06T02:45:42;96983.13;;;24.87;60.94
42519;BME280;28147;47.520;18.920;2023-08-06T02:48:07;96984.81;;;24.95;60.97
42519;BME280;28147;47.520;18.920;2023-08-06T02:50:40;96992.47;;;24.67;61.10
42519;BME280;28147;47.520;18.920;2023-08-06T02:53:09;96981.72;;;24.74;61.53
42519;BME280;28147;47.520;18.920;2023-08-06T02:55:35;96976.50;;;24.65;62.13
42519;BME280;28147;47.520;18.920;2023-08-06T02:58:01;96964.50;;;24.70;62.25
42519;BME280;28147;47.520;18.920;2023-08-06T03:00:27;96982.91;;;24.76;61.56
42519;BME280;28147;47.520;18.920;2023-08-06T03:02:53;96986.63;;;24.45;61.64
42519;BME280;28147;47.520;18.920;2023-08-06T03:05:19;96995.41;;;24.39;62.14
42519;BME280;28147;47.520;18.920;2023-08-06T03:07:44;96992.50;;;24.12;63.58
42519;BME280;28147;47.520;18.920;2023-08-06T03:10:10;96990.25;;;23.79;64.04
42519;BME280;28147;47.520;18.920;2023-08-06T03:12:35;96983.56;;;24.12;63.29
42519;BME280;28147;47.520;18.920;2023-08-06T03:15:00;96982.78;;;24.69;61.58
42519;BME280;28147;47.520;18.920;2023-08-06T03:17:26;96983.88;;;24.45;62.75
42519;BME280;28147;47.520;18.920;2023-08-06T03:19:51;96977.16;;;24.59;62.32
42519;BME280;28147;47.520;18.920;2023-08-06T03:22:19;96973.72;;;24.42;62.18
42519;BME280;28147;47.520;18.920;2023-08-06T03:24:45;96981.44;;;24.21;63.55
42519;BME280;28147;47.520;18.920;2023-08-06T03:27:10;96976.78;;;24.21;61.20
42519;BME280;28147;47.520;18.920;2023-08-06T03:29:36;96979.09;;;24.39;61.94
42519;BME280;28147;47.520;18.920;2023-08-06T03:32:01;96982.25;;;24.41;61.23
42519;BME280;28147;47.520;18.920;2023-08-06T03:34:26;96977.22;;;24.43;61.04
42519;BME280;28147;47.520;18.920;2023-08-06T03:36:52;96966.28;;;24.59;61.19
42519;BME280;28147;47.520;18.920;2023-08-06T03:39:17;96968.69;;;24.64;60.27
42519;BME280;28147;47.520;18.920;2023-08-06T03:41:42;96978.59;;;24.52;60.97
42519;BME280;28147;47.520;18.920;2023-08-06T03:44:08;96971.84;;;24.27;61.66
42519;BME280;28147;47.520;18.920;2023-08-06T03:46:33;96977.78;;;24.13;61.38
42519;BME280;28147;47.520;18.920;2023-08-06T03:49:02;96986.63;;;24.45;60.02
42519;BME280;28147;47.520;18.920;2023-08-06T03:51:27;96980.13;;;24.15;61.16
42519;BME280;28147;47.520;18.920;2023-08-06T03:53:53;96984.78;;;24.14;60.58
42519;BME280;28147;47.520;18.920;2023-08-06T03:56:18;96982.41;;;24.13;61.27
42519;BME280;28147;47.520;18.920;2023-08-06T03:58:44;96984.78;;;24.14;61.11
42519;BME280;28147;47.520;18.920;2023-08-06T04:01:09;96978.06;;;24.08;61.10
42519;BME280;28147;47.520;18.920;2023-08-06T04:03:34;96970.91;;;24.19;60.46
42519;BME280;28147;47.520;18.920;2023-08-06T04:06:02;96968.25;;;24.23;59.58
42519;BME280;28147;47.520;18.920;2023-08-06T04:08:28;96969.69;;;24.17;60.25
42519;BME280;28147;47.520;18.920;2023-08-06T04:10:53;96965.66;;;23.91;61.39
42519;BME280;28147;47.520;18.920;2023-08-06T04:13:19;96968.25;;;24.03;61.28
42519;BME280;28147;47.520;18.920;2023-08-06T04:15:45;96959.94;;;23.96;60.67
42519;BME280;28147;47.520;18.920;2023-08-06T04:18:10;96961.97;;;23.99;59.98
42519;BME280;28147;47.520;18.920;2023-08-06T04:20:42;96959.00;;;23.89;60.24
42519;BME280;28147;47.520;18.920;2023-08-06T04:23:08;96958.69;;;23.59;61.48
42519;BME280;28147;47.520;18.920;2023-08-06T04:25:34;96952.56;;;23.62;61.23
42519;BME280;28147;47.520;18.920;2023-08-06T04:27:59;96954.44;;;23.26;61.68
42519;BME280;28147;47.520;18.920;2023-08-06T04:30:24;96947.50;;;23.60;61.21
42519;BME280;28147;47.520;18.920;2023-08-06T04:32:50;96952.94;;;23.44;62.23
42519;BME280;28147;47.520;18.920;2023-08-06T04:35:16;96940.13;;;23.61;60.93
42519;BME280;28147;47.520;18.920;2023-08-06T04:37:41;96952.25;;;23.47;61.12
42519;BME280;28147;47.520;18.920;2023-08-06T04:40:07;96950.22;;;23.44;61.31
42519;BME280;28147;47.520;18.920;2023-08-06T04:42:33;96951.53;;;23.50;60.96
42519;BME280;28147;47.520;18.920;2023-08-06T04:44:58;96944.28;;;23.39;61.15
42519;BME280;28147;47.520;18.920;2023-08-06T04:47:24;96948.53;;;23.71;60.36
42519;BME280;28147;47.520;18.920;2023-08-06T04:49:51;96942.75;;;23.73;60.51
42519;BME280;28147;47.520;18.920;2023-08-06T04:52:16;96946.91;;;23.86;60.55
42519;BME280;28147;47.520;18.920;2023-08-06T04:54:43;96941.25;;;23.60;60.08
42519;BME280;28147;47.520;18.920;2023-08-06T04:57:09;96939.28;;;23.57;60.88
42519;BME280;28147;47.520;18.920;2023-08-06T04:59:35;96937.63;;;23.36;60.35
42519;BME280;28147;47.520;18.920;2023-08-06T05:02:00;96927.75;;;23.28;60.72
42519;BME280;28147;47.520;18.920;2023-08-06T05:04:27;96934.53;;;23.53;59.93
42519;BME280;28147;47.520;18.920;2023-08-06T05:06:52;96929.59;;;23.24;60.87
42519;BME280;28147;47.520;18.920;2023-08-06T05:09:18;96933.84;;;23.41;60.78
42519;BME280;28147;47.520;18.920;2023-08-06T05:11:43;96930.78;;;23.42;60.38
42519;BME280;28147;47.520;18.920;2023-08-06T05:14:09;96925.63;;;23.37;60.53
42519;BME280;28147;47.520;18.920;2023-08-06T05:16:34;96929.28;;;23.61;60.17
42519;BME280;28147;47.520;18.920;2023-08-06T05:18:59;96921.34;;;23.20;60.88
42519;BME280;28147;47.520;18.920;2023-08-06T05:21:25;96922.66;;;23.42;60.37
42519;BME280;28147;47.520;18.920;2023-08-06T05:23:50;96918.13;;;23.15;60.95
42519;BME280;28147;47.520;18.920;2023-08-06T05:26:16;96919.44;;;23.05;60.98
42519;BME280;28147;47.520;18.920;2023-08-06T05:28:44;96930.47;;;23.28;60.65
42519;BME280;28147;47.520;18.920;2023-08-06T05:31:10;96931.34;;;23.16;60.90
42519;BME280;28147;47.520;18.920;2023-08-06T05:33:35;96924.28;;;22.96;60.65
42519;BME280;28147;47.520;18.920;2023-08-06T05:36:00;96917.25;;;23.11;60.81
42519;BME280;28147;47.520;18.920;2023-08-06T05:38:26;96912.94;;;23.25;60.30
42519;BME280;28147;47.520;18.920;2023-08-06T05:40:52;96914.63;;;23.30;60.80
42519;BME280;28147;47.520;18.920;2023-08-06T05:43:17;96914.13;;;22.93;60.35
42519;BME280;28147;47.520;18.920;2023-08-06T05:45:45;96918.28;;;23.22;60.29
42519;BME280;28147;47.520;18.920;2023-08-06T05:48:13;96918.91;;;23.31;60.27
42519;BME280;28147;47.520;18.920;2023-08-06T05:50:39;96919.88;;;23.23;60.19
42519;BME280;28147;47.520;18.920;2023-08-06T05:53:04;96899.41;;;23.45;59.68
42519;BME280;28147;47.520;18.920;2023-08-06T05:55:29;96909.63;;;23.16;59.98
42519;BME280;28147;47.520;18.920;2023-08-06T05:57:56;96905.28;;;23.47;59.26
42519;BME280;28147;47.520;18.920;2023-08-06T06:00:22;96902.81;;;23.22;59.28
42519;BME280;28147;47.520;18.920;2023-08-06T06:02:47;96886.03;;;23.36;59.42
42519;BME280;28147;47.520;18.920;2023-08-06T06:05:13;96885.78;;;23.25;59.97
42519;BME280;28147;47.520;18.920;2023-08-06T06:07:38;96894.41;;;23.47;60.02
42519;BME280;28147;47.520;18.920;2023-08-06T06:10:04;96890.56;;;22.97;60.05
42519;BME280;28147;47.520;18.920;2023-08-06T06:12:30;96893.59;;;23.27;59.31
42519;BME280;28147;47.520;18.920;2023-08-06T06:14:55;96894.00;;;23.29;59.36
42519;BME280;28147;47.520;18.920;2023-08-06T06:17:21;96891.31;;;23.13;59.69
42519;BME280;28147;47.520;18.920;2023-08-06T06:19:46;96895.13;;;22.93;60.29
42519;BME280;28147;47.520;18.920;2023-08-06T06:22:12;96888.31;;;23.18;59.25
42519;BME280;28147;47.520;18.920;2023-08-06T06:24:37;96887.56;;;22.86;60.40
42519;BME280;28147;47.520;18.920;2023-08-06T06:27:03;96895.50;;;22.79;60.29
42519;BME280;28147;47.520;18.920;2023-08-06T06:29:29;96897.88;;;23.28;59.17
42519;BME280;28147;47.520;18.920;2023-08-06T06:31:54;96904.91;;;22.81;60.42
42519;BME280;28147;47.520;18.920;2023-08-06T06:34:20;96896.16;;;23.04;59.47
42519;BME280;28147;47.520;18.920;2023-08-06T06:36:45;96906.88;;;22.69;60.51
42519;BME280;28147;47.520;18.920;2023-08-06T06:39:11;96927.13;;;23.03;59.40
42519;BME280;28147;47.520;18.920;2023-08-06T06:41:36;96929.66;;;22.80;59.86
42519;BME280;28147;47.520;18.920;2023-08-06T06:44:01;96932.09;;;22.25;61.24
42519;BME280;28147;47.520;18.920;2023-08-06T06:46:27;96927.56;;;22.89;59.34
42519;BME280;28147;47.520;18.920;2023-08-06T06:48:52;96931.28;;;22.97;59.39
42519;BME280;28147;47.520;18.920;2023-08-06T06:51:18;96937.47;;;22.97;59.99
42519;BME280;28147;47.520;18.920;2023-08-06T06:53:43;96941.84;;;23.18;59.90
42519;BME280;28147;47.520;18.920;2023-08-06T06:56:09;96938.44;;;23.05;58.54
42519;BME280;28147;47.520;18.920;2023-08-06T06:58:34;96936.94;;;23.23;59.20
42519;BME280;28147;47.520;18.920;2023-08-06T07:01:00;96923.78;;;23.25;58.16
42519;BME280;28147;47.520;18.920;2023-08-06T07:03:25;96925.63;;;23.37;58.82
42519;BME280;28147;47.520;18.920;2023-08-06T07:05:51;96931.44;;;23.20;59.21
42519;BME280;28147;47.520;18.920;2023-08-06T07:08:16;96932.31;;;23.24;59.02
42519;BME280;28147;47.520;18.920;2023-08-06T07:10:42;96928.53;;;23.13;59.32
42519;BME280;28147;47.520;18.920;2023-08-06T07:13:08;96924.50;;;23.06;59.22
42519;BME280;28147;47.520;18.920;2023-08-06T07:15:34;96929.31;;;23.13;59.11
42519;BME280;28147;47.520;18.920;2023-08-06T07:17:59;96940.97;;;23.29;58.58
42519;BME280;28147;47.520;18.920;2023-08-06T07:20:25;96944.47;;;23.14;59.70
42519;BME280;28147;47.520;18.920;2023-08-06T07:22:50;96932.81;;;23.29;58.79
42519;BME280;28147;47.520;18.920;2023-08-06T07:25:16;96948.81;;;23.50;57.22
42519;BME280;28147;47.520;18.920;2023-08-06T07:27:42;96953.16;;;23.04;58.49
42519;BME280;28147;47.520;18.920;2023-08-06T07:30:08;96954.69;;;22.73;58.42
42519;BME280;28147;47.520;18.920;2023-08-06T07:32:33;96967.75;;;22.99;58.84
42519;BME280;28147;47.520;18.920;2023-08-06T07:34:59;96956.66;;;23.04;58.50
42519;BME280;28147;47.520;18.920;2023-08-06T07:37:26;96962.06;;;23.36;58.02
42519;BME280;28147;47.520;18.920;2023-08-06T07:39:55;96949.38;;;23.24;58.79
42519;BME280;28147;47.520;18.920;2023-08-06T07:42:21;96942.13;;;23.13;58.95
42519;BME280;28147;47.520;18.920;2023-08-06T07:44:54;96942.22;;;23.00;59.39
42519;BME280;28147;47.520;18.920;2023-08-06T07:47:20;96947.00;;;22.91;58.55
42519;BME280;28147;47.520;18.920;2023-08-06T07:49:45;96952.72;;;23.02;59.92
42519;BME280;28147;47.520;18.920;2023-08-06T07:52:11;96937.34;;;22.78;60.26
42519;BME280;28147;47.520;18.920;2023-08-06T07:54:36;96936.09;;;22.59;59.50
42519;BME280;28147;47.520;18.920;2023-08-06T07:57:02;96931.19;;;22.65;60.15
42519;BME280;28147;47.520;18.920;2023-08-06T07:59:27;96935.63;;;22.42;60.35
42519;BME280;28147;47.520;18.920;2023-08-06T08:01:53;96939.09;;;22.54;59.69
42519;BME280;28147;47.520;18.920;2023-08-06T08:04:18;96935.72;;;23.05;59.34
42519;BME280;28147;47.520;18.920;2023-08-06T08:06:44;96922.22;;;22.33;60.67
42519;BME280;28147;47.520;18.920;2023-08-06T08:09:09;96928.25;;;22.54;60.17
42519;BME280;28147;47.520;18.920;2023-08-06T08:11:34;96926.25;;;22.83;58.70
42519;BME280;28147;47.520;18.920;2023-08-06T08:14:00;96924.25;;;23.12;58.63
42519;BME280;28147;47.520;18.920;2023-08-06T08:16:25;96925.56;;;23.34;58.31
42519;BME280;28147;47.520;18.920;2023-08-06T08:18:51;96930.13;;;22.98;58.76
42519;BME280;28147;47.520;18.920;2023-08-06T08:21:16;96924.50;;;23.06;57.84
42519;BME280;28147;47.520;18.920;2023-08-06T08:23:41;96925.75;;;23.09;57.82
42519;BME280;28147;47.520;18.920;2023-08-06T08:26:09;96942.03;;;23.09;58.40
42519;BME280;28147;47.520;18.920;2023-08-06T08:28:34;96939.22;;;23.05;58.23
42519;BME280;28147;47.520;18.920;2023-08-06T08:30:59;96943.19;;;22.92;58.50
42519;BME280;28147;47.520;18.920;2023-08-06T08:33:25;96954.63;;;22.86;57.95
42519;BME280;28147;47.520;18.920;2023-08-06T08:35:50;96963.66;;;23.21;57.99
42519;BME280;28147;47.520;18.920;2023-08-06T08:38:15;96967.25;;;23.25;57.71
42519;BME280;28147;47.520;18.920;2023-08-06T08:40:46;96958.16;;;23.34;58.10
42519;BME280;28147;47.520;18.920;2023-08-06T08:43:13;96954.19;;;22.99;58.05
42519;BME280;28147;47.520;18.920;2023-08-06T08:45:39;96935.63;;;22.86;58.45
42519;BME280;28147;47.520;18.920;2023-08-06T08:48:05;96945.41;;;22.90;58.65
42519;BME280;28147;47.520;18.920;2023-08-06T08:50:32;96935.94;;;22.84;58.78
42519;BME280;28147;47.520;18.920;2023-08-06T08:52:57;96928.16;;;22.82;58.66
42519;BME280;28147;47.520;18.920;2023-08-06T08:55:23;96926.31;;;22.71;58.54
42519;BME280;28147;47.520;18.920;2023-08-06T08:57:49;96929.81;;;22.87;58.47
42519;BME280;28147;47.520;18.920;2023-08-06T09:00:14;96937.44;;;22.81;58.59
42519;BME280;28147;47.520;18.920;2023-08-06T09:02:41;96935.19;;;22.99;57.86
42519;BME280;28147;47.520;18.920;2023-08-06T09:05:09;96944.38;;;22.35;58.98
42519;BME280;28147;47.520;18.920;2023-08-06T09:07:41;96937.19;;;21.86;59.13
42519;BME280;28147;47.520;18.920;2023-08-06T09:10:10;96937.53;;;22.25;59.58
42519;BME280;28147;47.520;18.920;2023-08-06T09:12:36;96945.59;;;22.38;59.58
42519;BME280;28147;47.520;18.920;2023-08-06T09:15:01;96935.53;;;22.82;58.22
42519;BME280;28147;47.520;18.920;2023-08-06T09:17:28;96927.47;;;22.70;59.05
42519;BME280;28147;47.520;18.920;2023-08-06T09:19:54;96926.25;;;22.83;58.65
42519;BME280;28147;47.520;18.920;2023-08-06T09:22:20;96937.22;;;23.02;57.82
42519;BME280;28147;47.520;18.920;2023-08-06T09:24:45;96936.84;;;22.88;58.10
42519;BME280;28147;47.520;18.920;2023-08-06T09:27:14;96939.13;;;22.86;58.33
42519;BME280;28147;47.520;18.920;2023-08-06T09:29:44;96934.97;;;22.61;57.97
42519;BME280;28147;47.520;18.920;2023-08-06T09:32:11;96945.31;;;22.87;58.35
42519;BME280;28147;47.520;18.920;2023-08-06T09:34:39;96949.19;;;22.42;59.15
42519;BME280;28147;47.520;18.920;2023-08-06T09:37:05;96944.75;;;22.65;58.39
42519;BME280;28147;47.520;18.920;2023-08-06T09:39:31;96959.94;;;22.38;59.80
42519;BME280;28147;47.520;18.920;2023-08-06T09:41:57;96962.91;;;22.33;59.07
42519;BME280;28147;47.520;18.920;2023-08-06T09:44:25;96972.00;;;22.69;57.69
42519;BME280;28147;47.520;18.920;2023-08-06T09:46:52;96972.91;;;22.89;58.17
42519;BME280;28147;47.520;18.920;2023-08-06T09:49:19;96960.34;;;22.96;57.98
42519;BME280;28147;47.520;18.920;2023-08-06T09:51:45;96960.53;;;22.59;58.28
42519;BME280;28147;47.520;18.920;2023-08-06T09:54:15;96955.59;;;22.93;57.38
42519;BME280;28147;47.520;18.920;2023-08-06T09:56:42;96938.06;;;22.75;58.07
42519;BME280;28147;47.520;18.920;2023-08-06T09:59:08;96946.69;;;23.09;57.40
42519;BME280;28147;47.520;18.920;2023-08-06T10:01:35;96950.13;;;23.41;57.18
42519;BME280;28147;47.520;18.920;2023-08-06T10:04:02;96940.75;;;22.31;59.13
42519;BME280;28147;47.520;18.920;2023-08-06T10:06:28;96954.47;;;22.22;57.97
42519;BME280;28147;47.520;18.920;2023-08-06T10:08:55;96954.34;;;22.91;57.36
42519;BME280;28147;47.520;18.920;2023-08-06T10:11:24;96968.28;;;22.89;57.70
42519;BME280;28147;47.520;18.920;2023-08-06T10:13:57;96974.19;;;23.23;57.00
42519;BME280;28147;47.520;18.920;2023-08-06T10:16:23;96982.75;;;23.92;54.74
42519;BME280;28147;47.520;18.920;2023-08-06T10:18:50;96983.94;;;23.75;55.07
42519;BME280;28147;47.520;18.920;2023-08-06T10:21:16;96991.69;;;23.92;55.93
42519;BME280;28147;47.520;18.920;2023-08-06T10:23:41;96991.22;;;23.87;55.39
42519;BME280;28147;47.520;18.920;2023-08-06T10:26:07;96998.09;;;23.49;55.30
42519;BME280;28147;47.520;18.920;2023-08-06T10:28:37;96995.63;;;24.49;53.14
42519;BME280;28147;47.520;18.920;2023-08-06T10:31:04;97003.88;;;23.98;54.10
42519;BME280;28147;47.520;18.920;2023-08-06T10:33:43;96996.25;;;24.62;52.80
42519;BME280;28147;47.520;18.920;2023-08-06T10:36:09;97005.47;;;24.96;51.52
42519;BME280;28147;47.520;18.920;2023-08-06T10:38:35;97006.31;;;24.03;52.41
42519;BME280;28147;47.520;18.920;2023-08-06T10:41:03;97001.88;;;23.95;54.04
42519;BME280;28147;47.520;18.920;2023-08-06T10:43:32;97013.00;;;23.90;53.46
42519;BME280;28147;47.520;18.920;2023-08-06T10:45:59;97016.47;;;23.71;54.18
42519;BME280;28147;47.520;18.920;2023-08-06T10:48:32;97021.75;;;23.99;53.56
42519;BME280;28147;47.520;18.920;2023-08-06T10:51:00;97014.81;;;23.67;53.96
42519;BME280;28147;47.520;18.920;2023-08-06T10:53:26;97026.97;;;22.94;54.86
42519;BME280;28147;47.520;18.920;2023-08-06T10:55:51;97019.84;;;22.89;55.88
42519;BME280;28147;47.520;18.920;2023-08-06T10:58:17;97030.84;;;23.40;54.84
42519;BME280;28147;47.520;18.920;2023-08-06T11:00:42;97036.19;;;23.52;54.47
42519;BME280;28147;47.520;18.920;2023-08-06T11:03:08;97030.41;;;23.22;54.67
42519;BME280;28147;47.520;18.920;2023-08-06T11:05:34;97034.16;;;23.65;53.02
42519;BME280;28147;47.520;18.920;2023-08-06T11:08:02;97031.91;;;23.20;54.37
42519;BME280;28147;47.520;18.920;2023-08-06T11:10:28;97038.88;;;23.05;54.22
42519;BME280;28147;47.520;18.920;2023-08-06T11:12:53;97040.84;;;22.64;55.38
42519;BME280;28147;47.520;18.920;2023-08-06T11:15:20;97040.91;;;22.80;55.38
42519;BME280;28147;47.520;18.920;2023-08-06T11:17:46;97047.19;;;22.84;56.49
42519;BME280;28147;47.520;18.920;2023-08-06T11:20:12;97045.50;;;22.92;56.39
42519;BME280;28147;47.520;18.920;2023-08-06T11:22:38;97049.44;;;22.94;56.35
42519;BME280;28147;47.520;18.920;2023-08-06T11:25:08;97044.25;;;22.33;58.29
42519;BME280;28147;47.520;18.920;2023-08-06T11:27:33;97051.50;;;22.57;57.57
42519;BME280;28147;47.520;18.920;2023-08-06T11:29:58;97049.84;;;22.52;57.45
42519;BME280;28147;47.520;18.920;2023-08-06T11:32:24;97054.47;;;22.80;57.61
42519;BME280;28147;47.520;18.920;2023-08-06T11:34:50;97035.78;;;22.63;57.83
42519;BME280;28147;47.520;18.920;2023-08-06T11:37:15;97039.09;;;22.56;57.84
42519;BME280;28147;47.520;18.920;2023-08-06T11:39:46;97037.63;;;22.58;58.92
42519;BME280;28147;47.520;18.920;2023-08-06T11:42:12;97037.28;;;22.76;57.42
42519;BME280;28147;47.520;18.920;2023-08-06T11:44:40;97029.66;;;22.94;56.60
42519;BME280;28147;47.520;18.920;2023-08-06T11:47:12;97041.44;;;23.77;55.10
42519;BME280;28147;47.520;18.920;2023-08-06T11:49:48;97040.38;;;23.66;54.97
42519;BME280;28147;47.520;18.920;2023-08-06T11:52:19;97040.81;;;23.36;54.97
42519;BME280;28147;47.520;18.920;2023-08-06T11:57:29;97035.94;;;23.42;54.22
42519;BME280;28147;47.520;18.920;2023-08-06T11:59:58;97053.72;;;23.39;54.64
42519;BME280;28147;47.520;18.920;2023-08-06T12:02:23;97068.44;;;23.70;53.43
42519;BME280;28147;47.520;18.920;2023-08-06T12:07:29;97058.88;;;23.92;52.86
42519;BME280;28147;47.520;18.920;2023-08-06T12:09:56;97066.75;;;24.32;52.28
42519;BME280;28147;47.520;18.920;2023-08-06T12:12:21;97074.94;;;23.81;52.83
42519;BME280;28147;47.520;18.920;2023-08-06T12:14:46;97075.00;;;23.85;52.67
42519;BME280;28147;47.520;18.920;2023-08-06T12:17:12;97083.84;;;23.66;53.86
42519;BME280;28147;47.520;18.920;2023-08-06T12:19:38;97087.84;;;22.68;57.42
42519;BME280;28147;47.520;18.920;2023-08-06T12:22:04;97099.19;;;22.98;56.71
42519;BME280;28147;47.520;18.920;2023-08-06T12:24:29;97118.75;;;23.04;56.97
42519;BME280;28147;47.520;18.920;2023-08-06T12:26:57;97111.63;;;22.99;56.85
42519;BME280;28147;47.520;18.920;2023-08-06T12:29:23;97112.41;;;23.60;55.62
42519;BME280;28147;47.520;18.920;2023-08-06T12:31:49;97117.53;;;23.17;56.63
42519;BME280;28147;47.520;18.920;2023-08-06T12:34:14;97115.66;;;23.05;55.95
42519;BME280;28147;47.520;18.920;2023-08-06T12:36:39;97107.75;;;23.28;55.81
42519;BME280;28147;47.520;18.920;2023-08-06T12:39:05;97104.16;;;23.24;55.67
42519;BME280;28147;47.520;18.920;2023-08-06T12:41:30;97116.53;;;23.53;54.49
42519;BME280;28147;47.520;18.920;2023-08-06T12:43:55;97111.19;;;22.97;55.27
42519;BME280;28147;47.520;18.920;2023-08-06T12:46:21;97119.75;;;23.27;54.85
42519;BME280;28147;47.520;18.920;2023-08-06T12:48:46;97114.03;;;23.17;55.50
42519;BME280;28147;47.520;18.920;2023-08-06T12:51:13;97126.88;;;23.64;54.15